createdAt,value
2023-11-25T00:00:39.763Z,36.36
2023-11-25T00:01:39.964Z,36.40
2023-11-25T00:02:49.885Z,36.38
2023-11-25T00:03:39.965Z,36.37
2023-11-25T00:04:39.879Z,36.37
2023-11-25T00:05:39.819Z,36.32
2023-11-25T00:06:39.825Z,36.35
2023-11-25T00:07:39.852Z,36.32
2023-11-25T00:08:39.791Z,36.33
2023-11-25T00:09:39.797Z,36.32
2023-11-25T00:10:39.838Z,36.36
2023-11-25T00:11:39.755Z,36.33
2023-11-25T00:12:39.814Z,36.29
2023-11-25T00:13:39.764Z,36.41
2023-11-25T00:14:39.752Z,36.40
2023-11-25T00:15:39.739Z,36.42
2023-11-25T00:16:39.812Z,36.40
2023-11-25T00:17:39.741Z,36.29
2023-11-25T00:18:39.711Z,36.28
2023-11-25T00:19:39.733Z,36.33
2023-11-25T00:20:39.684Z,36.35
2023-11-25T00:21:39.679Z,36.18
2023-11-25T00:22:39.740Z,36.32
2023-11-25T00:23:39.668Z,36.29
2023-11-25T00:24:39.649Z,36.32
2023-11-25T00:25:39.714Z,36.21
2023-11-25T00:26:39.654Z,36.20
2023-11-25T00:27:39.621Z,36.21
2023-11-25T00:28:39.682Z,36.31
2023-11-25T00:29:39.608Z,36.32
2023-11-25T00:30:39.786Z,36.28
2023-11-25T00:31:39.666Z,36.27
2023-11-25T00:32:39.629Z,36.22
2023-11-25T00:33:39.607Z,36.29
2023-11-25T00:34:39.593Z,36.27
2023-11-25T00:35:39.558Z,36.34
2023-11-25T00:36:39.555Z,36.29
2023-11-25T00:37:39.546Z,36.16
2023-11-25T00:38:39.600Z,36.22
2023-11-25T00:39:39.530Z,36.18
2023-11-25T00:40:39.658Z,36.24
2023-11-25T00:41:39.505Z,36.28
2023-11-25T00:42:39.507Z,36.28
2023-11-25T00:43:39.656Z,36.31
2023-11-25T00:44:39.544Z,36.30
2023-11-25T00:45:39.516Z,36.29
2023-11-25T00:46:39.599Z,36.26
2023-11-25T00:47:39.541Z,36.31
2023-11-25T00:48:39.448Z,36.27
2023-11-25T00:49:39.536Z,36.23
2023-11-25T00:50:39.457Z,36.25
2023-11-25T00:51:39.442Z,36.20
2023-11-25T00:52:39.582Z,36.23
2023-11-25T00:53:39.450Z,36.27
2023-11-25T00:54:39.408Z,36.20
2023-11-25T00:55:39.456Z,36.20
2023-11-25T00:56:39.392Z,36.25
2023-11-25T00:57:39.379Z,36.18
2023-11-25T00:58:39.435Z,36.19
2023-11-25T00:59:39.357Z,36.16
2023-11-25T01:00:39.368Z,36.18
2023-11-25T01:01:39.459Z,36.22
2023-11-25T01:02:39.518Z,36.20
2023-11-25T01:03:39.565Z,36.18
2023-11-25T01:04:39.385Z,36.28
2023-11-25T01:05:39.299Z,36.19
2023-11-25T01:06:39.318Z,36.22
2023-11-25T01:07:39.335Z,36.17
2023-11-25T01:08:39.279Z,36.22
2023-11-25T01:09:39.294Z,36.22
2023-11-25T01:10:39.311Z,36.27
2023-11-25T01:11:39.328Z,36.21
2023-11-25T01:12:39.257Z,36.19
2023-11-25T01:13:39.282Z,36.27
2023-11-25T01:14:39.229Z,36.22
2023-11-25T01:15:39.218Z,36.20
2023-11-25T01:16:39.308Z,36.24
2023-11-25T01:17:39.248Z,36.15
2023-11-25T01:18:39.192Z,36.22
2023-11-25T01:19:39.326Z,36.17
2023-11-25T01:20:39.220Z,36.19
2023-11-25T01:21:39.166Z,36.17
2023-11-25T01:22:39.248Z,36.15
2023-11-25T01:23:39.149Z,36.17
2023-11-25T01:24:39.174Z,36.10
2023-11-25T01:25:39.235Z,36.06
2023-11-25T01:26:39.143Z,36.13
2023-11-25T01:27:39.145Z,36.14
2023-11-25T01:28:39.162Z,36.10
2023-11-25T01:29:39.090Z,36.07
2023-11-25T01:30:39.125Z,36.05
2023-11-25T01:31:39.181Z,36.11
2023-11-25T01:32:39.126Z,36.07
2023-11-25T01:33:39.074Z,36.06
2023-11-25T01:34:39.137Z,36.10
2023-11-25T01:35:39.048Z,36.07
2023-11-25T01:36:39.056Z,36.12
2023-11-25T01:37:39.098Z,36.06
2023-11-25T01:38:39.032Z,36.02
2023-11-25T01:39:39.019Z,36.03
2023-11-25T01:40:39.047Z,36.07
2023-11-25T01:41:39.005Z,36.07
2023-11-25T01:42:38.996Z,36.04
2023-11-25T01:43:39.031Z,36.02
2023-11-25T01:44:39.008Z,35.97
2023-11-25T01:45:38.980Z,35.99
2023-11-25T01:46:39.116Z,36.00
2023-11-25T01:47:38.981Z,36.00
2023-11-25T01:48:38.949Z,36.03
2023-11-25T01:49:38.985Z,35.96
2023-11-25T01:50:38.952Z,36.01
2023-11-25T01:51:38.919Z,35.96
2023-11-25T01:52:38.994Z,36.01
2023-11-25T01:53:38.889Z,35.97
2023-11-25T01:54:38.913Z,36.00
2023-11-25T01:55:38.917Z,35.98
2023-11-25T01:56:38.900Z,36.02
2023-11-25T01:57:38.909Z,36.03
2023-11-25T01:58:38.898Z,35.98
2023-11-25T01:59:38.871Z,35.94
2023-11-25T02:00:38.852Z,35.97
2023-11-25T02:01:38.971Z,35.93
2023-11-25T02:02:39.162Z,35.99
2023-11-25T02:03:38.839Z,35.99
2023-11-25T02:04:38.938Z,35.96
2023-11-25T02:05:38.787Z,36.01
2023-11-25T02:06:38.792Z,36.01
2023-11-25T02:07:38.807Z,35.97
2023-11-25T02:08:38.785Z,35.97
2023-11-25T02:09:38.775Z,36.00
2023-11-25T02:10:38.805Z,35.95
2023-11-25T02:11:38.778Z,35.99
2023-11-25T02:12:38.730Z,36.00
2023-11-25T02:13:38.844Z,35.96
2023-11-25T02:14:38.720Z,36.01
2023-11-25T02:15:38.712Z,35.99
2023-11-25T02:16:38.741Z,35.98
2023-11-25T02:17:38.746Z,35.96
2023-11-25T02:18:38.695Z,35.98
2023-11-25T02:19:38.689Z,35.97
2023-11-25T02:20:38.665Z,35.95
2023-11-25T02:21:38.663Z,35.93
2023-11-25T02:22:38.700Z,35.98
2023-11-25T02:23:38.675Z,35.98
2023-11-25T02:24:38.710Z,35.93
2023-11-25T02:25:38.674Z,35.96
2023-11-25T02:26:38.624Z,35.98
2023-11-25T02:27:38.611Z,35.99
2023-11-25T02:28:38.646Z,35.97
2023-11-25T02:29:38.597Z,35.96
2023-11-25T02:30:38.600Z,35.94
2023-11-25T02:31:38.664Z,35.94
2023-11-25T02:32:38.603Z,35.89
2023-11-25T02:33:38.564Z,35.90
2023-11-25T02:34:38.567Z,35.88
2023-11-25T02:35:38.567Z,35.92
2023-11-25T02:36:38.547Z,35.90
2023-11-25T02:37:38.593Z,35.85
2023-11-25T02:38:38.501Z,35.89
2023-11-25T02:39:38.520Z,35.92
2023-11-25T02:40:38.538Z,35.87
2023-11-25T02:41:38.516Z,35.88
2023-11-25T02:42:38.471Z,35.90
2023-11-25T02:43:38.528Z,35.91
2023-11-25T02:44:38.475Z,35.88
2023-11-25T02:45:38.455Z,35.94
2023-11-25T02:46:38.464Z,35.90
2023-11-25T02:47:38.578Z,35.86
2023-11-25T02:48:38.421Z,35.84
2023-11-25T02:49:38.436Z,35.88
2023-11-25T02:50:38.421Z,35.85
2023-11-25T02:51:38.414Z,35.85
2023-11-25T02:52:38.429Z,35.86
2023-11-25T02:53:38.397Z,35.89
2023-11-25T02:54:38.392Z,35.88
2023-11-25T02:55:38.447Z,35.85
2023-11-25T02:56:38.362Z,35.89
2023-11-25T02:57:38.368Z,35.83
2023-11-25T02:58:38.372Z,35.87
2023-11-25T02:59:38.342Z,35.83
2023-11-25T03:00:38.346Z,35.83
2023-11-25T03:01:38.375Z,35.81
2023-11-25T03:02:38.502Z,35.75
2023-11-25T03:03:38.359Z,35.81
2023-11-25T03:04:38.339Z,35.78
2023-11-25T03:05:38.417Z,35.84
2023-11-25T03:06:38.276Z,35.82
2023-11-25T03:07:38.303Z,35.79
2023-11-25T03:08:38.268Z,35.82
2023-11-25T03:09:38.242Z,35.77
2023-11-25T03:10:38.305Z,35.80
2023-11-25T03:11:48.614Z,35.78
2023-11-25T03:12:38.221Z,35.79
2023-11-25T03:13:38.228Z,35.77
2023-11-25T03:14:38.234Z,35.75
2023-11-25T03:15:38.190Z,35.77
2023-11-25T03:16:38.296Z,35.75
2023-11-25T03:17:38.207Z,35.76
2023-11-25T03:18:38.156Z,35.78
2023-11-25T03:19:38.202Z,35.81
2023-11-25T03:20:38.147Z,35.74
2023-11-25T03:21:38.170Z,35.80
2023-11-25T03:22:38.153Z,35.81
2023-11-25T03:23:38.154Z,35.75
2023-11-25T03:24:38.127Z,35.81
2023-11-25T03:25:38.191Z,35.79
2023-11-25T03:26:38.102Z,35.81
2023-11-25T03:27:38.112Z,35.83
2023-11-25T03:28:38.126Z,35.77
2023-11-25T03:29:38.077Z,35.80
2023-11-25T03:30:38.061Z,35.78
2023-11-25T03:31:38.155Z,35.82
2023-11-25T03:32:38.127Z,35.79
2023-11-25T03:33:38.055Z,35.78
2023-11-25T03:34:38.038Z,35.79
2023-11-25T03:35:38.017Z,35.83
2023-11-25T03:36:38.001Z,35.83
2023-11-25T03:37:38.100Z,35.77
2023-11-25T03:38:37.991Z,35.82
2023-11-25T03:39:37.984Z,35.80
2023-11-25T03:40:38.085Z,35.77
2023-11-25T03:41:38.052Z,35.80
2023-11-25T03:42:38.002Z,35.79
2023-11-25T03:43:38.024Z,35.76
2023-11-25T03:44:38.058Z,35.79
2023-11-25T03:45:37.987Z,35.78
2023-11-25T03:46:38.060Z,35.79
2023-11-25T03:47:37.995Z,35.73
2023-11-25T03:48:37.933Z,35.80
2023-11-25T03:49:38.053Z,35.76
2023-11-25T03:50:37.924Z,35.80
2023-11-25T03:51:37.938Z,35.78
2023-11-25T03:52:48.839Z,35.73
2023-11-25T03:53:37.926Z,35.76
2023-11-25T03:54:37.908Z,35.74
2023-11-25T03:55:37.916Z,35.74
2023-11-25T03:56:37.849Z,35.76
2023-11-25T03:57:37.846Z,35.73
2023-11-25T03:58:37.853Z,35.75
2023-11-25T03:59:37.820Z,35.78
2023-11-25T04:00:37.792Z,35.71
2023-11-25T04:01:38.048Z,35.75
2023-11-25T04:02:37.935Z,35.74
2023-11-25T04:03:37.864Z,35.73
2023-11-25T04:04:37.833Z,35.72
2023-11-25T04:05:37.755Z,35.76
2023-11-25T04:06:37.762Z,35.74
2023-11-25T04:07:37.802Z,35.78
2023-11-25T04:08:37.740Z,35.74
2023-11-25T04:09:37.718Z,35.75
2023-11-25T04:10:37.802Z,35.69
2023-11-25T04:11:37.704Z,35.64
2023-11-25T04:12:37.698Z,35.69
2023-11-25T04:13:37.727Z,35.74
2023-11-25T04:14:37.670Z,35.75
2023-11-25T04:15:37.688Z,35.72
2023-11-25T04:16:37.761Z,35.70
2023-11-25T04:17:37.733Z,35.67
2023-11-25T04:18:37.647Z,35.69
2023-11-25T04:19:37.709Z,35.62
2023-11-25T04:20:37.619Z,35.66
2023-11-25T04:21:37.624Z,35.65
2023-11-25T04:22:37.642Z,35.69
2023-11-25T04:23:37.605Z,35.66
2023-11-25T04:24:37.602Z,35.71
2023-11-25T04:25:38.063Z,35.69
2023-11-25T04:26:37.586Z,35.69
2023-11-25T04:27:37.591Z,35.65
2023-11-25T04:28:37.573Z,35.65
2023-11-25T04:29:37.550Z,35.66
2023-11-25T04:30:37.732Z,35.67
2023-11-25T04:31:37.686Z,35.63
2023-11-25T04:32:37.593Z,35.65
2023-11-25T04:33:37.515Z,35.63
2023-11-25T04:34:37.588Z,35.67
2023-11-25T04:35:37.504Z,35.56
2023-11-25T04:36:37.502Z,35.64
2023-11-25T04:37:37.514Z,35.69
2023-11-25T04:38:37.466Z,35.63
2023-11-25T04:39:37.466Z,35.63
2023-11-25T04:40:37.476Z,35.59
2023-11-25T04:41:37.502Z,35.65
2023-11-25T04:42:37.428Z,35.61
2023-11-25T04:43:37.443Z,35.61
2023-11-25T04:44:37.426Z,35.64
2023-11-25T04:45:37.409Z,35.65
2023-11-25T04:46:37.441Z,35.58
2023-11-25T04:47:37.439Z,35.61
2023-11-25T04:48:37.393Z,35.57
2023-11-25T04:49:37.446Z,35.59
2023-11-25T04:50:37.380Z,35.53
2023-11-25T04:51:37.364Z,35.60
2023-11-25T04:52:37.407Z,35.56
2023-11-25T04:53:37.344Z,35.59
2023-11-25T04:54:37.341Z,35.60
2023-11-25T04:55:37.353Z,35.53
2023-11-25T04:56:37.324Z,35.51
2023-11-25T04:57:37.318Z,35.52
2023-11-25T04:58:37.347Z,35.58
2023-11-25T04:59:37.304Z,35.53
2023-11-25T05:00:37.281Z,35.50
2023-11-25T05:01:37.414Z,35.50
2023-11-25T05:02:37.309Z,35.52
2023-11-25T05:03:37.328Z,35.55
2023-11-25T05:04:37.416Z,35.53
2023-11-25T05:05:37.243Z,35.55
2023-11-25T05:06:37.245Z,35.54
2023-11-25T05:07:37.266Z,35.45
2023-11-25T05:08:37.217Z,35.47
2023-11-25T05:09:37.201Z,35.49
2023-11-25T05:10:37.267Z,35.44
2023-11-25T05:11:37.200Z,35.50
2023-11-25T05:12:37.183Z,35.43
2023-11-25T05:13:37.188Z,35.49
2023-11-25T05:14:37.184Z,35.44
2023-11-25T05:15:37.171Z,35.44
2023-11-25T05:16:37.190Z,35.49
2023-11-25T05:17:37.301Z,35.42
2023-11-25T05:18:37.128Z,35.42
2023-11-25T05:19:37.141Z,35.41
2023-11-25T05:20:37.102Z,35.39
2023-11-25T05:21:37.179Z,35.41
2023-11-25T05:22:37.177Z,35.41
2023-11-25T05:23:37.126Z,35.33
2023-11-25T05:24:37.066Z,35.40
2023-11-25T05:25:37.111Z,35.40
2023-11-25T05:26:37.093Z,35.39
2023-11-25T05:27:42.071Z,35.38
2023-11-25T05:28:37.119Z,35.41
2023-11-25T05:29:37.030Z,35.40
2023-11-25T05:30:37.040Z,35.35
2023-11-25T05:31:37.123Z,35.22
2023-11-25T05:32:37.031Z,35.32
2023-11-25T05:33:37.020Z,35.35
2023-11-25T05:34:37.024Z,35.38
2023-11-25T05:35:36.996Z,35.37
2023-11-25T05:36:36.991Z,35.36
2023-11-25T05:37:37.006Z,35.31
2023-11-25T05:38:36.960Z,35.35
2023-11-25T05:39:36.960Z,35.33
2023-11-25T05:40:36.956Z,35.35
2023-11-25T05:41:36.937Z,35.34
2023-11-25T05:42:36.937Z,35.28
2023-11-25T05:43:36.940Z,35.26
2023-11-25T05:44:36.908Z,35.30
2023-11-25T05:45:36.896Z,35.32
2023-11-25T05:46:36.940Z,35.32
2023-11-25T05:47:36.923Z,35.27
2023-11-25T05:48:36.888Z,35.25
2023-11-25T05:49:36.916Z,35.31
2023-11-25T05:50:36.873Z,35.24
2023-11-25T05:51:36.852Z,35.30
2023-11-25T05:52:36.901Z,35.28
2023-11-25T05:53:46.864Z,35.27
2023-11-25T05:54:36.823Z,35.28
2023-11-25T05:55:36.889Z,35.25
2023-11-25T05:56:36.801Z,35.25
2023-11-25T05:57:36.809Z,35.26
2023-11-25T05:58:36.853Z,35.27
2023-11-25T05:59:36.795Z,35.17
2023-11-25T06:00:36.779Z,35.22
2023-11-25T06:01:36.792Z,35.19
2023-11-25T06:02:36.757Z,35.18
2023-11-25T06:03:36.809Z,35.19
2023-11-25T06:04:36.869Z,35.20
2023-11-25T06:05:36.803Z,35.21
2023-11-25T06:06:36.736Z,35.17
2023-11-25T06:07:36.737Z,35.18
2023-11-25T06:08:36.706Z,35.15
2023-11-25T06:09:36.697Z,35.18
2023-11-25T06:10:36.736Z,35.15
2023-11-25T06:11:36.674Z,35.17
2023-11-25T06:12:36.672Z,35.15
2023-11-25T06:13:36.722Z,35.14
2023-11-25T06:14:36.652Z,35.18
2023-11-25T06:15:36.655Z,35.20
2023-11-25T06:16:38.405Z,35.19
2023-11-25T06:17:36.692Z,35.18
2023-11-25T06:18:36.716Z,35.14
2023-11-25T06:19:36.641Z,35.17
2023-11-25T06:20:36.585Z,35.08
2023-11-25T06:21:36.623Z,35.10
2023-11-25T06:22:36.602Z,35.08
2023-11-25T06:23:36.589Z,35.08
2023-11-25T06:24:36.591Z,35.03
2023-11-25T06:25:37.449Z,35.00
2023-11-25T06:26:36.642Z,35.03
2023-11-25T06:27:36.574Z,35.06
2023-11-25T06:28:36.544Z,35.06
2023-11-25T06:29:36.533Z,35.06
2023-11-25T06:30:36.525Z,35.07
2023-11-25T06:31:36.559Z,35.09
2023-11-25T06:32:36.549Z,35.08
2023-11-25T06:33:37.365Z,35.08
2023-11-25T06:34:57.552Z,35.08
2023-11-25T06:35:36.481Z,35.15
2023-11-25T06:36:36.470Z,35.14
2023-11-25T06:37:36.523Z,35.09
2023-11-25T06:38:36.491Z,35.09
2023-11-25T06:39:36.504Z,35.02
2023-11-25T06:40:36.488Z,35.08
2023-11-25T06:41:36.426Z,35.06
2023-11-25T06:42:36.425Z,35.12
2023-11-25T06:43:36.431Z,35.06
2023-11-25T06:44:36.398Z,35.07
2023-11-25T06:45:36.401Z,35.07
2023-11-25T06:46:36.495Z,35.06
2023-11-25T06:47:36.536Z,35.07
2023-11-25T06:48:36.380Z,35.09
2023-11-25T06:49:36.429Z,35.06
2023-11-25T06:50:36.376Z,35.06
2023-11-25T06:51:36.343Z,35.05
2023-11-25T06:52:36.376Z,35.03
2023-11-25T06:53:36.319Z,35.04
2023-11-25T06:54:36.317Z,35.03
2023-11-25T06:55:36.903Z,35.03
2023-11-25T06:56:36.302Z,35.02
2023-11-25T06:57:36.296Z,34.96
2023-11-25T06:58:36.311Z,34.96
2023-11-25T06:59:36.277Z,34.99
2023-11-25T07:00:36.324Z,35.02
2023-11-25T07:01:36.346Z,34.98
2023-11-25T07:02:36.317Z,35.00
2023-11-25T07:03:36.291Z,35.02
2023-11-25T07:04:36.282Z,35.02
2023-11-25T07:05:36.216Z,34.99
2023-11-25T07:06:36.212Z,34.99
2023-11-25T07:07:36.228Z,34.94
2023-11-25T07:08:36.195Z,34.95
2023-11-25T07:09:36.185Z,34.91
2023-11-25T07:10:37.002Z,34.89
2023-11-25T07:11:36.161Z,34.89
2023-11-25T07:12:36.161Z,34.91
2023-11-25T07:13:36.137Z,34.88
2023-11-25T07:14:36.141Z,34.89
2023-11-25T07:15:36.131Z,34.88
2023-11-25T07:16:36.224Z,34.92
2023-11-25T07:17:36.202Z,34.92
2023-11-25T07:18:36.104Z,34.93
2023-11-25T07:19:36.145Z,34.88
2023-11-25T07:20:36.077Z,34.87
2023-11-25T07:21:36.078Z,34.83
2023-11-25T07:22:36.097Z,34.86
2023-11-25T07:23:36.053Z,34.90
2023-11-25T07:24:36.057Z,34.89
2023-11-25T07:25:36.072Z,34.84
2023-11-25T07:26:36.057Z,34.87
2023-11-25T07:27:36.021Z,34.85
2023-11-25T07:28:36.045Z,34.82
2023-11-25T07:29:36.098Z,34.87
2023-11-25T07:30:36.078Z,34.86
2023-11-25T07:31:36.035Z,34.88
2023-11-25T07:32:36.019Z,34.84
2023-11-25T07:33:35.960Z,34.80
2023-11-25T07:34:36.015Z,34.85
2023-11-25T07:35:35.953Z,34.88
2023-11-25T07:36:35.969Z,34.86
2023-11-25T07:37:36.032Z,34.84
2023-11-25T07:38:35.957Z,34.83
2023-11-25T07:39:35.924Z,34.86
2023-11-25T07:40:35.941Z,34.86
2023-11-25T07:41:35.924Z,34.86
2023-11-25T07:42:35.905Z,34.88
2023-11-25T07:43:35.920Z,34.84
2023-11-25T07:44:35.883Z,34.79
2023-11-25T07:45:35.877Z,34.84
2023-11-25T07:46:35.917Z,34.81
2023-11-25T07:47:36.132Z,34.81
2023-11-25T07:48:35.866Z,34.83
2023-11-25T07:49:35.904Z,34.76
2023-11-25T07:50:35.833Z,34.77
2023-11-25T07:51:35.807Z,34.83
2023-11-25T07:52:35.838Z,34.77
2023-11-25T07:53:35.789Z,34.79
2023-11-25T07:54:35.805Z,34.83
2023-11-25T07:55:35.834Z,34.83
2023-11-25T07:56:35.786Z,34.81
2023-11-25T07:57:35.776Z,34.80
2023-11-25T07:58:35.795Z,34.81
2023-11-25T07:59:35.756Z,34.78
2023-11-25T08:00:35.750Z,34.77
2023-11-25T08:01:35.798Z,34.82
2023-11-25T08:02:35.895Z,34.80
2023-11-25T08:03:35.862Z,34.81
2023-11-25T08:04:35.756Z,34.77
2023-11-25T08:05:35.693Z,34.75
2023-11-25T08:06:35.702Z,34.77
2023-11-25T08:07:35.720Z,34.76
2023-11-25T08:08:35.690Z,34.75
2023-11-25T08:09:35.655Z,34.76
2023-11-25T08:10:36.320Z,34.77
2023-11-25T08:11:35.638Z,34.71
2023-11-25T08:12:35.696Z,34.73
2023-11-25T08:13:35.662Z,34.69
2023-11-25T08:14:35.624Z,34.74
2023-11-25T08:15:35.634Z,34.73
2023-11-25T08:16:35.707Z,34.75
2023-11-25T08:17:35.700Z,34.73
2023-11-25T08:18:35.606Z,34.76
2023-11-25T08:19:35.604Z,34.74
2023-11-25T08:20:35.565Z,34.70
2023-11-25T08:21:35.557Z,34.71
2023-11-25T08:22:35.580Z,34.69
2023-11-25T08:23:35.545Z,34.67
2023-11-25T08:24:35.546Z,34.69
2023-11-25T08:25:35.606Z,34.64
2023-11-25T08:26:35.524Z,34.65
2023-11-25T08:27:35.513Z,34.67
2023-11-25T08:28:35.613Z,34.62
2023-11-25T08:29:35.484Z,34.64
2023-11-25T08:30:35.490Z,34.62
2023-11-25T08:31:35.569Z,34.64
2023-11-25T08:32:35.596Z,34.64
2023-11-25T08:33:35.463Z,34.61
2023-11-25T08:34:35.514Z,34.61
2023-11-25T08:35:35.454Z,34.60
2023-11-25T08:36:35.427Z,34.60
2023-11-25T08:37:35.442Z,34.61
2023-11-25T08:38:35.449Z,34.64
2023-11-25T08:39:35.407Z,34.65
2023-11-25T08:40:35.440Z,34.64
2023-11-25T08:41:35.391Z,34.63
2023-11-25T08:42:35.393Z,34.62
2023-11-25T08:43:35.405Z,34.62
2023-11-25T08:44:35.373Z,34.61
2023-11-25T08:45:35.393Z,34.63
2023-11-25T08:46:35.394Z,34.62
2023-11-25T08:47:35.343Z,34.64
2023-11-25T08:48:35.328Z,34.67
2023-11-25T08:49:35.360Z,34.66
2023-11-25T08:50:40.334Z,34.59
2023-11-25T08:51:35.286Z,34.67
2023-11-25T08:52:35.313Z,34.63
2023-11-25T08:53:35.272Z,34.63
2023-11-25T08:54:35.281Z,34.62
2023-11-25T08:55:35.254Z,34.61
2023-11-25T08:56:37.412Z,34.64
2023-11-25T08:57:35.300Z,34.64
2023-11-25T08:58:35.277Z,34.59
2023-11-25T08:59:35.243Z,34.62
2023-11-25T09:00:35.234Z,34.61
2023-11-25T09:01:35.260Z,34.59
2023-11-25T09:02:35.255Z,34.57
2023-11-25T09:03:35.465Z,34.54
2023-11-25T09:04:35.244Z,34.57
2023-11-25T09:05:35.316Z,34.54
2023-11-25T09:06:35.298Z,34.52
2023-11-25T09:07:36.155Z,34.53
2023-11-25T09:08:35.333Z,34.56
2023-11-25T09:09:35.347Z,34.58
2023-11-25T09:10:35.399Z,34.53
2023-11-25T09:11:35.325Z,34.55
2023-11-25T09:12:35.322Z,34.49
2023-11-25T09:13:35.310Z,34.53
2023-11-25T09:14:35.327Z,34.50
2023-11-25T09:15:41.614Z,34.49
2023-11-25T09:16:36.351Z,34.50
2023-11-25T09:17:35.261Z,34.45
2023-11-25T09:18:35.271Z,34.45
2023-11-25T09:19:35.265Z,34.47
2023-11-25T09:20:35.234Z,34.45
2023-11-25T09:21:35.220Z,34.45
2023-11-25T09:22:35.291Z,34.44
2023-11-25T09:23:35.211Z,34.41
2023-11-25T09:24:35.210Z,34.42
2023-11-25T09:25:35.243Z,34.41
2023-11-25T09:26:35.199Z,34.43
2023-11-25T09:27:35.189Z,34.41
2023-11-25T09:28:35.180Z,34.41
2023-11-25T09:29:35.170Z,34.42
2023-11-25T09:30:35.283Z,34.42
2023-11-25T09:31:35.185Z,34.38
2023-11-25T09:32:35.169Z,34.39
2023-11-25T09:33:35.150Z,34.39
2023-11-25T09:34:35.185Z,34.42
2023-11-25T09:35:35.108Z,34.42
2023-11-25T09:36:35.116Z,34.40
2023-11-25T09:37:35.103Z,34.43
2023-11-25T09:38:35.092Z,34.46
2023-11-25T09:39:35.087Z,34.43
2023-11-25T09:40:35.108Z,34.42
2023-11-25T09:41:35.082Z,34.42
2023-11-25T09:42:35.059Z,34.42
2023-11-25T09:43:35.104Z,34.39
2023-11-25T09:44:36.756Z,34.38
2023-11-25T09:45:35.058Z,34.40
2023-11-25T09:46:35.056Z,34.40
2023-11-25T09:47:35.061Z,34.40
2023-11-25T09:48:34.998Z,34.41
2023-11-25T09:49:35.039Z,34.37
2023-11-25T09:50:34.976Z,34.37
2023-11-25T09:51:34.992Z,34.38
2023-11-25T09:52:34.996Z,34.38
2023-11-25T09:53:34.988Z,34.38
2023-11-25T09:54:36.836Z,34.37
2023-11-25T09:55:34.994Z,34.37
2023-11-25T09:56:34.942Z,34.35
2023-11-25T09:57:34.932Z,34.38
2023-11-25T09:58:34.928Z,34.31
2023-11-25T09:59:34.898Z,34.35
2023-11-25T10:00:34.899Z,34.36
2023-11-25T10:01:35.035Z,34.37
2023-11-25T10:02:35.058Z,34.34
2023-11-25T10:03:35.059Z,34.34
2023-11-25T10:04:35.038Z,34.33
2023-11-25T10:05:34.871Z,34.30
2023-11-25T10:06:34.866Z,34.33
2023-11-25T10:07:34.838Z,34.36
2023-11-25T10:08:44.885Z,34.35
2023-11-25T10:09:34.814Z,34.38
2023-11-25T10:10:34.831Z,34.35
2023-11-25T10:11:34.802Z,34.36
2023-11-25T10:12:34.797Z,34.34
2023-11-25T10:13:34.791Z,34.36
2023-11-25T10:14:34.798Z,34.36
2023-11-25T10:15:34.791Z,34.29
2023-11-25T10:16:34.798Z,34.35
2023-11-25T10:17:34.748Z,34.32
2023-11-25T10:18:34.748Z,34.33
2023-11-25T10:19:34.764Z,34.34
2023-11-25T10:20:34.718Z,34.32
2023-11-25T10:21:34.721Z,34.33
2023-11-25T10:22:34.764Z,34.33
2023-11-25T10:23:34.693Z,34.32
2023-11-25T10:24:34.687Z,34.32
2023-11-25T10:25:34.692Z,34.31
2023-11-25T10:26:34.700Z,34.35
2023-11-25T10:27:34.659Z,34.30
2023-11-25T10:28:35.243Z,34.34
2023-11-25T10:29:34.634Z,34.28
2023-11-25T10:30:34.646Z,34.32
2023-11-25T10:31:34.645Z,34.34
2023-11-25T10:32:34.656Z,34.32
2023-11-25T10:33:34.646Z,34.31
2023-11-25T10:34:34.670Z,34.32
2023-11-25T10:35:34.580Z,34.33
2023-11-25T10:36:34.602Z,34.31
2023-11-25T10:37:34.574Z,34.30
2023-11-25T10:38:34.607Z,34.32
2023-11-25T10:39:34.539Z,34.29
2023-11-25T10:40:34.604Z,34.30
2023-11-25T10:41:34.536Z,34.31
2023-11-25T10:42:34.538Z,34.30
2023-11-25T10:43:34.851Z,34.31
2023-11-25T10:44:34.518Z,34.29
2023-11-25T10:45:35.606Z,34.27
2023-11-25T10:46:34.510Z,34.28
2023-11-25T10:47:34.540Z,34.27
2023-11-25T10:48:34.461Z,34.26
2023-11-25T10:49:34.521Z,34.22
2023-11-25T10:50:34.570Z,34.26
2023-11-25T10:51:35.070Z,34.21
2023-11-25T10:52:34.459Z,34.23
2023-11-25T10:53:34.461Z,34.22
2023-11-25T10:54:35.338Z,34.24
2023-11-25T10:55:34.430Z,34.19
2023-11-25T10:56:34.406Z,34.22
2023-11-25T10:57:34.388Z,34.24
2023-11-25T10:58:34.402Z,34.20
2023-11-25T10:59:34.399Z,34.20
2023-11-25T11:00:34.365Z,34.21
2023-11-25T11:01:34.562Z,34.20
2023-11-25T11:02:34.466Z,34.22
2023-11-25T11:03:34.419Z,34.21
2023-11-25T11:04:34.398Z,34.22
2023-11-25T11:05:34.337Z,34.22
2023-11-25T11:06:34.328Z,34.21
2023-11-25T11:07:34.374Z,34.19
2023-11-25T11:08:34.342Z,34.24
2023-11-25T11:09:34.301Z,34.25
2023-11-25T11:10:34.309Z,34.22
2023-11-25T11:11:34.291Z,34.20
2023-11-25T11:12:34.291Z,34.24
2023-11-25T11:13:34.348Z,34.20
2023-11-25T11:14:34.316Z,34.22
2023-11-25T11:15:34.240Z,34.23
2023-11-25T11:16:34.256Z,34.20
2023-11-25T11:17:34.283Z,34.20
2023-11-25T11:18:34.247Z,34.19
2023-11-25T11:19:34.384Z,34.23
2023-11-25T11:20:34.241Z,34.20
2023-11-25T11:21:34.190Z,34.18
2023-11-25T11:22:34.222Z,34.24
2023-11-25T11:23:34.190Z,34.19
2023-11-25T11:24:34.194Z,34.23
2023-11-25T11:25:34.203Z,34.23
2023-11-25T11:26:34.164Z,34.23
2023-11-25T11:27:34.128Z,34.19
2023-11-25T11:28:34.172Z,34.21
2023-11-25T11:29:34.127Z,34.19
2023-11-25T11:30:34.112Z,34.20
2023-11-25T11:31:34.216Z,34.18
2023-11-25T11:32:34.169Z,34.20
2023-11-25T11:33:34.133Z,34.21
2023-11-25T11:34:34.146Z,34.18
2023-11-25T11:35:34.063Z,34.19
2023-11-25T11:36:34.066Z,34.18
2023-11-25T11:37:34.085Z,34.20
2023-11-25T11:38:34.069Z,34.19
2023-11-25T11:39:34.051Z,34.20
2023-11-25T11:40:34.074Z,34.20
2023-11-25T11:41:34.002Z,34.20
2023-11-25T11:42:34.149Z,34.20
2023-11-25T11:43:34.023Z,34.21
2023-11-25T11:44:33.986Z,34.20
2023-11-25T11:45:33.989Z,34.18
2023-11-25T11:46:33.980Z,34.18
2023-11-25T11:47:34.010Z,34.19
2023-11-25T11:48:33.943Z,34.16
2023-11-25T11:49:33.967Z,34.16
2023-11-25T11:50:33.956Z,34.18
2023-11-25T11:51:33.929Z,34.18
2023-11-25T11:52:33.971Z,34.17
2023-11-25T11:53:33.942Z,34.21
2023-11-25T11:54:33.897Z,34.23
2023-11-25T11:55:33.962Z,34.23
2023-11-25T11:56:33.911Z,34.24
2023-11-25T11:57:33.891Z,34.24
2023-11-25T11:58:33.906Z,34.25
2023-11-25T11:59:33.879Z,34.27
2023-11-25T12:00:33.825Z,34.28
2023-11-25T12:01:33.879Z,34.27
2023-11-25T12:02:34.085Z,34.29
2023-11-25T12:03:33.984Z,34.30
2023-11-25T12:04:33.892Z,34.31
2023-11-25T12:05:33.867Z,34.31
2023-11-25T12:06:33.789Z,34.34
2023-11-25T12:07:33.796Z,34.36
2023-11-25T12:08:33.770Z,34.37
2023-11-25T12:09:33.773Z,34.35
2023-11-25T12:10:33.788Z,34.35
2023-11-25T12:11:33.761Z,34.38
2023-11-25T12:12:33.739Z,34.39
2023-11-25T12:13:33.764Z,34.37
2023-11-25T12:14:33.706Z,34.38
2023-11-25T12:15:33.718Z,34.41
2023-11-25T12:16:33.745Z,34.39
2023-11-25T12:17:33.765Z,34.41
2023-11-25T12:18:33.709Z,34.42
2023-11-25T12:19:33.698Z,34.45
2023-11-25T12:20:33.660Z,34.44
2023-11-25T12:21:33.657Z,34.46
2023-11-25T12:22:33.660Z,34.46
2023-11-25T12:23:48.907Z,34.45
2023-11-25T12:24:34.624Z,34.51
2023-11-25T12:25:33.668Z,34.48
2023-11-25T12:26:33.616Z,34.49
2023-11-25T12:27:33.601Z,34.48
2023-11-25T12:28:33.607Z,34.49
2023-11-25T12:29:33.589Z,34.52
2023-11-25T12:30:33.580Z,34.52
2023-11-25T12:31:33.619Z,34.52
2023-11-25T12:32:33.685Z,34.53
2023-11-25T12:33:33.566Z,34.53
2023-11-25T12:34:33.553Z,34.54
2023-11-25T12:35:33.541Z,34.54
2023-11-25T12:36:33.521Z,34.54
2023-11-25T12:37:33.529Z,34.55
2023-11-25T12:38:33.518Z,34.56
2023-11-25T12:39:33.564Z,34.55
2023-11-25T12:40:33.523Z,34.57
2023-11-25T12:41:33.488Z,34.57
2023-11-25T12:42:33.473Z,34.59
2023-11-25T12:43:33.512Z,34.55
2023-11-25T12:44:33.474Z,34.60
2023-11-25T12:45:43.501Z,34.61
2023-11-25T12:46:33.620Z,34.64
2023-11-25T12:47:33.551Z,34.61
2023-11-25T12:48:33.439Z,34.63
2023-11-25T12:49:33.441Z,34.63
2023-11-25T12:50:33.407Z,34.64
2023-11-25T12:51:33.417Z,34.63
2023-11-25T12:52:33.421Z,34.65